»·PEaware :: N512DL KSEE-KBUR

N512DL :: KSEE-KBUR

FLIGHT INFORMATION

Flight Status: Arrived
Operator: Privately registered:
United States
More flights under this callsign
Pilot: Jeff K. (12978)
Aircraft: BEECH AIRCRAFT BARON
(BE58)
More flights by this aircraft type
Origin: KSEE Gillespie
United States
Destination: KBUR Bob Hope-Burbank
United States
More flights between these airports :: More routes between these airports
Route: +OCN V23 POPPR SMO125R SMO SMO311R SILEX
File this flight plan on PilotEdge
Remarks:
Altitude:
(Current/Filed)
6,000ft
Speed:
(Current/Filed)
160kts
Departed: 22-Dec-17 02:31 PM
Arrived: 22-Dec-17 03:29 PM
Distance/Time
Traveled:
108nm/0:57
Distance/Time
To Go:
Arrived

Flight Plot

Page will automatically refresh every two minutes.


Map Options




Map Legend


Flown Route
Filed Route
Departure Airport
Arrival Airport
Navaid (VOR, NDB)
Fix

Horizontal Profiles

Position Reports

Time Latitude Longitude Heading Altitude Ground
Speed
22-Dec-17 14:20 32.823360 -116.970081 270 375ft 0kts
22-Dec-17 14:21 32.823360 -116.970081 270 375ft 0kts
22-Dec-17 14:22 32.823360 -116.970081 270 375ft 0kts
22-Dec-17 14:23 32.823360 -116.970081 270 375ft 0kts
22-Dec-17 14:24 32.823360 -116.970081 270 375ft 0kts
22-Dec-17 14:25 32.823360 -116.970081 270 375ft 0kts
22-Dec-17 14:26 32.823521 -116.970225 0 374ft 0kts
22-Dec-17 14:27 32.823595 -116.970257 306 374ft 3kts
22-Dec-17 14:28 32.823573 -116.971651 280 371ft 2kts
22-Dec-17 14:29 32.825903 -116.971639 62 370ft 9kts
22-Dec-17 14:30 32.824941 -116.966030 102 384ft 18kts
22-Dec-17 14:31 32.825278 -116.964073 314 392ft 0kts
22-Dec-17 14:32 32.825278 -116.964072 313 392ft 0kts
22-Dec-17 14:33 32.825380 -116.964187 325 391ft 7kts
22-Dec-17 14:34 32.825695 -116.964300 351 391ft 0kts
22-Dec-17 14:35 32.825695 -116.964300 351 391ft 0kts
22-Dec-17 14:36 32.825703 -116.964301 351 391ft 1kts
22-Dec-17 14:37 32.829802 -116.981416 286 773ft 116kts
22-Dec-17 14:38 32.852490 -116.993440 353 1954ft 125kts
22-Dec-17 14:39 32.888875 -116.996328 351 2926ft 143kts
22-Dec-17 14:40 32.924970 -116.998981 352 2823ft 163kts
22-Dec-17 14:41 32.945368 -117.000938 347 2853ft 129kts
22-Dec-17 14:42 32.973032 -117.003640 352 3370ft 92kts
22-Dec-17 14:43 32.999306 -117.005199 334 4458ft 100kts
22-Dec-17 14:44 33.017647 -117.025869 301 5323ft 109kts
22-Dec-17 14:45 33.035944 -117.057871 302 6006ft 135kts
22-Dec-17 14:46 33.059719 -117.099293 302 6001ft 158kts
22-Dec-17 14:47 33.083119 -117.140192 302 6000ft 161kts
22-Dec-17 14:48 33.101104 -117.171707 302 6009ft 163kts
22-Dec-17 14:49 33.111540 -117.189716 303 6003ft 164kts
22-Dec-17 14:50 33.131173 -117.224051 302 5999ft 163kts
22-Dec-17 14:51 33.149336 -117.256351 306 6000ft 171kts
22-Dec-17 14:52 33.173912 -117.299358 306 6001ft 181kts
22-Dec-17 14:53 33.202176 -117.349096 306 6000ft 182kts
22-Dec-17 14:54 33.230582 -117.399240 306 6000ft 183kts
22-Dec-17 14:55 33.263799 -117.444081 319 6001ft 181kts
22-Dec-17 14:56 33.300140 -117.485834 318 6001ft 181kts
22-Dec-17 14:57 33.336193 -117.527437 318 6001ft 181kts
22-Dec-17 14:58 33.372502 -117.569443 318 6001ft 181kts
22-Dec-17 14:59 33.408371 -117.610982 318 6001ft 181kts
22-Dec-17 15:00 33.444135 -117.652464 317 6000ft 181kts
22-Dec-17 15:01 33.480038 -117.694808 317 5999ft 181kts
22-Dec-17 15:02 33.515462 -117.737277 312 5998ft 182kts
22-Dec-17 15:03 33.550706 -117.779382 318 5988ft 181kts
22-Dec-17 15:04 33.586425 -117.820282 318 5999ft 181kts
22-Dec-17 15:05 33.623549 -117.855309 331 5999ft 179kts
22-Dec-17 15:06 33.663067 -117.884073 331 5999ft 179kts
22-Dec-17 15:07 33.701636 -117.912280 331 5999ft 179kts
22-Dec-17 15:08 33.740018 -117.940459 329 5999ft 180kts
22-Dec-17 15:09 33.762351 -117.990044 289 6000ft 184kts
22-Dec-17 15:10 33.777606 -118.046399 289 6000ft 184kts
22-Dec-17 15:11 33.793044 -118.103573 289 6000ft 184kts
22-Dec-17 15:12 33.808262 -118.160050 289 6000ft 184kts
22-Dec-17 15:13 33.819885 -118.203226 289 6000ft 184kts
22-Dec-17 15:14 33.835024 -118.259663 288 6000ft 184kts
22-Dec-17 15:15 33.863223 -118.307574 314 6000ft 182kts
22-Dec-17 15:16 33.898918 -118.346449 323 6000ft 181kts
22-Dec-17 15:17 33.936179 -118.382684 324 6001ft 181kts
22-Dec-17 15:18 33.972940 -118.419384 323 6001ft 181kts
22-Dec-17 15:19 34.010975 -118.457609 323 5990ft 182kts
22-Dec-17 15:20 34.048060 -118.501583 312 5264ft 185kts
22-Dec-17 15:21 34.078535 -118.546213 312 4331ft 161kts
22-Dec-17 15:22 34.103472 -118.583414 312 3993ft 130kts
22-Dec-17 15:23 34.127800 -118.619847 312 4002ft 143kts
22-Dec-17 15:24 34.149848 -118.652697 311 4010ft 146kts
22-Dec-17 15:25 34.175804 -118.688971 339 4004ft 142kts
22-Dec-17 15:26 34.201438 -118.665666 61 4002ft 126kts
22-Dec-17 15:27 34.202024 -118.625531 94 3999ft 123kts
22-Dec-17 15:28 34.200559 -118.582920 91 3788ft 131kts
22-Dec-17 15:29 34.200003 -118.542444 91 3696ft 130kts
22-Dec-17 15:30 34.199480 -118.500280 90 2905ft 139kts
22-Dec-17 15:31 34.199277 -118.463571 89 2298ft 120kts
22-Dec-17 15:32 34.198792 -118.430541 92 1974ft 119kts
22-Dec-17 15:33 34.198259 -118.392353 90 1286ft 125kts
22-Dec-17 15:34 34.197756 -118.360906 91 713ft 48kts
22-Dec-17 15:35 34.196864 -118.358083 222 706ft 0kts
22-Dec-17 15:36 34.196864 -118.358083 222 706ft 0kts
22-Dec-17 15:37 34.196832 -118.360157 269 710ft 19kts
22-Dec-17 15:38 34.196481 -118.365262 63 716ft 5kts

Navigation Log

Ident Type
Flight plan parsing failed, navigation log unavailable